Koyo — JD2279 — position and weather

sailwx.info

Track history (hours):
 
Tides and Currents Weather Stations Pressure Air Temp Water Temp Dewpoint Dewpoint Depression Visibility Wind Speed Wind Dir Waves Ship Positions

Koyo

Last reported at 2017-Jun-23 18:30 UTC. Time now 2017-Jun-24 05:23 UTC.
Position N 34°33' E 134°46'.

Length 80 m; draft 3.7 m.

Type: Cargo ship. MMSI: 431301812.

Date/timePositionNaut miles runAvg speedWind from/ knotsBaromVisibWave heightAir tempDewpointWater temp
2017-Jun-23 18:30N 34°33' E 134°46'611.0
2017-Jun-23 18:00N 34°35' E 134°52'510.3
2017-Jun-23 17:30N 34°38' E 134°58'4 7.8
2017-Jun-23 17:00N 34°37' E 135°02'4 8.8
2017-Jun-23 16:30N 34°36' E 135°08'611.2
2017-Jun-23 16:00N 34°37' E 135°14'2 4.0
2017-Jun-23 15:26N 34°39' E 135°15'0 0.0
2017-Jun-23 14:50N 34°39' E 135°15'0 0.0
2017-Jun-23 13:56N 34°39' E 135°15'0 0.0
2017-Jun-23 13:30N 34°39' E 135°15'3 6.5
2017-Jun-23 13:00N 34°36' E 135°15'612.3
2017-Jun-23 12:30N 34°30' E 135°11'713.1
2017-Jun-23 11:59N 34°25' E 135°07'613.5
2017-Jun-23 11:30N 34°20' E 135°02'5 9.9
2017-Jun-23 11:00N 34°15' E 135°02'611.7
2017-Jun-23 10:31N 34°12' E 135°09'0 0.0
2017-Jun-23 10:01N 34°12' E 135°09'0 0.0
2017-Jun-23 09:31N 34°12' E 135°09'0 0.0
2017-Jun-23 09:01N 34°12' E 135°09'0 0.8
2017-Jun-23 08:30N 34°13' E 135°08'612.0
2017-Jun-23 08:00N 34°11' E 135°01'13 3.7
2017-Jun-23 04:33N 34°06' E 134°47'112.9
2017-Jun-23 04:29N 34°07' E 134°47'813.4
2017-Jun-23 03:55N 34°12' E 134°54'715.1
2017-Jun-23 03:26N 34°18' E 134°59'613.9
2017-Jun-23 03:00N 34°23' E 135°02'714.2
2017-Jun-23 02:30N 34°28' E 135°08'713.4
2017-Jun-23 02:01N 34°34' E 135°13'611.8
2017-Jun-23 01:30N 34°39' E 135°15'0 0.3
2017-Jun-23 00:59N 34°39' E 135°15'0 0.0
2017-Jun-23 00:23N 34°39' E 135°15'0 0.0
2017-Jun-22 23:59N 34°39' E 135°15'0 0.0
2017-Jun-22 23:29N 34°39' E 135°15'0 0.9
2017-Jun-22 23:01N 34°39' E 135°15'0 0.9
2017-Jun-22 22:27N 34°39' E 135°15'0 0.0
2017-Jun-22 21:57N 34°39' E 135°15'0 0.0
2017-Jun-22 21:27N 34°39' E 135°15'0 0.0
2017-Jun-22 20:57N 34°39' E 135°15'0 0.0
2017-Jun-22 20:21N 34°39' E 135°15'0 0.0
2017-Jun-22 19:57N 34°39' E 135°15'0 0.1
2017-Jun-22 19:27N 34°39' E 135°15'0 0.0
2017-Jun-22 18:57N 34°39' E 135°15'0 0.0
2017-Jun-22 18:21N 34°39' E 135°15'0 0.0
2017-Jun-22 17:51N 34°39' E 135°15'0 0.0
2017-Jun-22 17:27N 34°39' E 135°15'0 0.0
2017-Jun-22 16:57N 34°39' E 135°15'0 0.0
2017-Jun-22 16:27N 34°39' E 135°15'0 0.0
2017-Jun-22 15:57N 34°39' E 135°15'0 0.0
2017-Jun-22 15:21N 34°39' E 135°15'0 0.0
2017-Jun-22 14:57N 34°39' E 135°15'0 0.0
2017-Jun-22 14:30N 34°39' E 135°15'1010.4
2017-Jun-22 13:30N 34°36' E 135°03'612.0
2017-Jun-22 12:59N 34°35' E 134°55'9 0.5
2017-Jun-21 18:14N 34°33' E 134°45'411.3
2017-Jun-21 17:53N 34°34' E 134°49'411.5
2017-Jun-21 17:30N 34°36' E 134°54'610.4
2017-Jun-21 16:59N 34°37' E 135°01'4 8.9
2017-Jun-21 16:31N 34°36' E 135°05'611.4
2017-Jun-21 16:01N 34°36' E 135°12'611.5
2017-Jun-21 15:31N 34°36' E 135°19'5 9.9
2017-Jun-21 15:00N 34°38' E 135°25'0 0.0
2017-Jun-21 14:30N 34°38' E 135°25'8 8.0
2017-Jun-21 13:30N 34°36' E 135°16'713.2
2017-Jun-21 13:00N 34°35' E 135°08'813.3
2017-Jun-21 12:24N 34°37' E 134°58'512.4
2017-Jun-21 12:00N 34°35' E 134°53'6 0.7
2017-Jun-21 03:11N 34°37' E 134°60'2 8.2
2017-Jun-21 02:58N 34°37' E 135°02'4 8.2
2017-Jun-21 02:30N 34°36' E 135°06'612.8
2017-Jun-21 02:00N 34°37' E 135°14'2 1.6
2017-Jun-21 00:32N 34°39' E 135°15'0 0.0
2017-Jun-21 00:20N 34°39' E 135°15'0 0.0
2017-Jun-20 23:44N 34°39' E 135°15'0 0.0
2017-Jun-20 23:16N 34°39' E 135°15'0 1.3
2017-Jun-20 23:00N 34°39' E 135°15'1 1.0
2017-Jun-20 22:27N 34°39' E 135°15'0 0.1
2017-Jun-20 21:58N 34°39' E 135°15'3 6.6
2017-Jun-20 21:30N 34°37' E 135°12'5 9.5
2017-Jun-20 21:00N 34°35' E 135°06'4 7.5
2017-Jun-20 20:30N 34°36' E 135°02'3 5.5
2017-Jun-20 19:58N 34°37' E 134°59'4 7.8
2017-Jun-20 19:27N 34°35' E 134°54'4 8.4
2017-Jun-20 18:58N 34°33' E 134°50'4 0.1
2017-Jun-19 06:05N 34°36' E 134°54'113.9
2017-Jun-19 05:59N 34°36' E 134°56'612.7
2017-Jun-19 05:30N 34°36' E 135°03'511.1
2017-Jun-19 05:00N 34°36' E 135°10'612.1
2017-Jun-19 04:30N 34°38' E 135°17'511.1
2017-Jun-19 04:01N 34°38' E 135°24'1 2.3
2017-Jun-19 03:30N 34°38' E 135°25'0 0.0
2017-Jun-19 03:01N 34°38' E 135°25'0 0.0
2017-Jun-19 02:30N 34°38' E 135°25'1 1.4
2017-Jun-19 02:01N 34°37' E 135°24'510.0
2017-Jun-19 01:30N 34°38' E 135°18'3 6.9
2017-Jun-19 01:00N 34°40' E 135°14'0 0.0
2017-Jun-19 00:31N 34°40' E 135°14'0 0.0
2017-Jun-19 00:01N 34°40' E 135°14'0 0.0
2017-Jun-18 23:31N 34°40' E 135°14'0 0.0
2017-Jun-18 23:01N 34°40' E 135°14'1 2.2
2017-Jun-18 22:30N 34°39' E 135°15'0 0.1
2017-Jun-18 22:01N 34°39' E 135°15'0 0.0
2017-Jun-18 21:30N 34°39' E 135°15'0 0.1
2017-Jun-18 21:00N 34°39' E 135°15'0 0.0
2017-Jun-18 20:30N 34°39' E 135°15'1 2.8
2017-Jun-18 20:00N 34°38' E 135°17'611.4
2017-Jun-18 19:30N 34°34' E 135°12'611.8
2017-Jun-18 19:00N 34°30' E 135°07'612.5
2017-Jun-18 18:31N 34°24' E 135°03'713.4
2017-Jun-18 18:00N 34°18' E 134°60'612.9
2017-Jun-18 17:30N 34°12' E 134°59'  
2017-Jun-16 10:52N 34°08' E 134°56'513.7
2017-Jun-16 10:30N 34°13' E 134°57'814.2
2017-Jun-16 09:54N 34°21' E 135°00'513.0
2017-Jun-16 09:29N 34°25' E 135°05'713.9
2017-Jun-16 09:00N 34°29' E 135°11'613.0
2017-Jun-16 08:30N 34°33' E 135°17'612.4
2017-Jun-16 08:00N 34°37' E 135°23'2 4.2
2017-Jun-16 07:31N 34°38' E 135°25'4 8.7
2017-Jun-16 07:00N 34°36' E 135°20'510.9
2017-Jun-16 06:30N 34°40' E 135°14'0 0.1
2017-Jun-16 06:00N 34°40' E 135°14'0 0.0
2017-Jun-16 05:30N 34°40' E 135°14'0 0.0
2017-Jun-16 05:00N 34°40' E 135°14'0 0.0
2017-Jun-16 04:30N 34°40' E 135°14'0 0.0
2017-Jun-16 04:00N 34°40' E 135°14'0 0.0
2017-Jun-16 03:30N 34°40' E 135°14'0 0.1
2017-Jun-16 03:00N 34°40' E 135°14'0 0.0
2017-Jun-16 02:30N 34°40' E 135°14'1 2.1
2017-Jun-16 02:00N 34°39' E 135°15'3 6.7
2017-Jun-16 01:30N 34°37' E 135°12'612.2
2017-Jun-16 01:00N 34°35' E 135°05'612.0
2017-Jun-16 00:30N 34°37' E 134°58'3 0.1
2017-Jun-14 06:24N 34°36' E 134°54'410.5
2017-Jun-14 06:00N 34°38' E 134°59'5 9.8
2017-Jun-14 05:30N 34°36' E 135°05'611.6
2017-Jun-14 05:00N 34°37' E 135°12'3 6.9
2017-Jun-14 04:30N 34°39' E 135°15'0 0.0
2017-Jun-14 04:00N 34°39' E 135°15'0 0.0
2017-Jun-14 03:30N 34°39' E 135°15'0 0.0
2017-Jun-14 03:00N 34°39' E 135°15'0 0.0
2017-Jun-14 02:30N 34°39' E 135°15'0 0.0
2017-Jun-14 02:00N 34°39' E 135°15'1 1.1
2017-Jun-14 01:30N 34°39' E 135°15'0 0.2
2017-Jun-14 01:00N 34°39' E 135°15'0 0.0
2017-Jun-14 00:30N 34°39' E 135°15'0 0.0
2017-Jun-13 23:59N 34°39' E 135°15'0 0.0
2017-Jun-13 23:30N 34°39' E 135°15'0 0.1
2017-Jun-13 23:00N 34°39' E 135°15'0 0.0
2017-Jun-13 22:30N 34°39' E 135°15'0 0.1
2017-Jun-13 22:00N 34°39' E 135°15'0 0.0
2017-Jun-13 21:30N 34°39' E 135°15'0 0.1
2017-Jun-13 21:00N 34°39' E 135°15'4 8.6
2017-Jun-13 20:30N 34°36' E 135°11'611.8
2017-Jun-13 20:00N 34°35' E 135°04'612.6
2017-Jun-13 19:30N 34°36' E 134°56'  
Track history (hours):
 
Tides and Currents Weather Stations Pressure Air Temp Water Temp Dewpoint Dewpoint Depression Visibility Wind Speed Wind Dir Waves Ship Positions

Koyo

Last reported at 2017-Jun-23 18:30 UTC. Time now 2017-Jun-24 05:23 UTC.
Position N 34°33' E 134°46'.

Length 80 m; draft 3.7 m.

Type: Cargo ship. MMSI: 431301812.

Date/timePositionNaut miles runAvg speedWind from/ knotsBaromVisibWave heightAir tempDewpointWater temp
2017-Jun-23 18:30N 34°33' E 134°46'611.0
2017-Jun-23 18:00N 34°35' E 134°52'510.3
2017-Jun-23 17:30N 34°38' E 134°58'4 7.8
2017-Jun-23 17:00N 34°37' E 135°02'4 8.8
2017-Jun-23 16:30N 34°36' E 135°08'611.2
2017-Jun-23 16:00N 34°37' E 135°14'2 4.0
2017-Jun-23 15:26N 34°39' E 135°15'0 0.0
2017-Jun-23 14:50N 34°39' E 135°15'0 0.0
2017-Jun-23 13:56N 34°39' E 135°15'0 0.0
2017-Jun-23 13:30N 34°39' E 135°15'3 6.5
2017-Jun-23 13:00N 34°36' E 135°15'612.3
2017-Jun-23 12:30N 34°30' E 135°11'713.1
2017-Jun-23 11:59N 34°25' E 135°07'613.5
2017-Jun-23 11:30N 34°20' E 135°02'5 9.9
2017-Jun-23 11:00N 34°15' E 135°02'611.7
2017-Jun-23 10:31N 34°12' E 135°09'0 0.0
2017-Jun-23 10:01N 34°12' E 135°09'0 0.0
2017-Jun-23 09:31N 34°12' E 135°09'0 0.0
2017-Jun-23 09:01N 34°12' E 135°09'0 0.8
2017-Jun-23 08:30N 34°13' E 135°08'612.0
2017-Jun-23 08:00N 34°11' E 135°01'13 3.7
2017-Jun-23 04:33N 34°06' E 134°47'112.9
2017-Jun-23 04:29N 34°07' E 134°47'813.4
2017-Jun-23 03:55N 34°12' E 134°54'715.1
2017-Jun-23 03:26N 34°18' E 134°59'613.9
2017-Jun-23 03:00N 34°23' E 135°02'714.2
2017-Jun-23 02:30N 34°28' E 135°08'713.4
2017-Jun-23 02:01N 34°34' E 135°13'611.8
2017-Jun-23 01:30N 34°39' E 135°15'0 0.3
2017-Jun-23 00:59N 34°39' E 135°15'0 0.0
2017-Jun-23 00:23N 34°39' E 135°15'0 0.0
2017-Jun-22 23:59N 34°39' E 135°15'0 0.0
2017-Jun-22 23:29N 34°39' E 135°15'0 0.9
2017-Jun-22 23:01N 34°39' E 135°15'0 0.9
2017-Jun-22 22:27N 34°39' E 135°15'0 0.0
2017-Jun-22 21:57N 34°39' E 135°15'0 0.0
2017-Jun-22 21:27N 34°39' E 135°15'0 0.0
2017-Jun-22 20:57N 34°39' E 135°15'0 0.0
2017-Jun-22 20:21N 34°39' E 135°15'0 0.0
2017-Jun-22 19:57N 34°39' E 135°15'0 0.1
2017-Jun-22 19:27N 34°39' E 135°15'0 0.0
2017-Jun-22 18:57N 34°39' E 135°15'0 0.0
2017-Jun-22 18:21N 34°39' E 135°15'0 0.0
2017-Jun-22 17:51N 34°39' E 135°15'0 0.0
2017-Jun-22 17:27N 34°39' E 135°15'0 0.0
2017-Jun-22 16:57N 34°39' E 135°15'0 0.0
2017-Jun-22 16:27N 34°39' E 135°15'0 0.0
2017-Jun-22 15:57N 34°39' E 135°15'0 0.0
2017-Jun-22 15:21N 34°39' E 135°15'0 0.0
2017-Jun-22 14:57N 34°39' E 135°15'0 0.0
2017-Jun-22 14:30N 34°39' E 135°15'1010.4
2017-Jun-22 13:30N 34°36' E 135°03'612.0
2017-Jun-22 12:59N 34°35' E 134°55'9 0.5
2017-Jun-21 18:14N 34°33' E 134°45'411.3
2017-Jun-21 17:53N 34°34' E 134°49'411.5
2017-Jun-21 17:30N 34°36' E 134°54'610.4
2017-Jun-21 16:59N 34°37' E 135°01'4 8.9
2017-Jun-21 16:31N 34°36' E 135°05'611.4
2017-Jun-21 16:01N 34°36' E 135°12'611.5
2017-Jun-21 15:31N 34°36' E 135°19'5 9.9
2017-Jun-21 15:00N 34°38' E 135°25'0 0.0
2017-Jun-21 14:30N 34°38' E 135°25'8 8.0
2017-Jun-21 13:30N 34°36' E 135°16'713.2
2017-Jun-21 13:00N 34°35' E 135°08'813.3
2017-Jun-21 12:24N 34°37' E 134°58'512.4
2017-Jun-21 12:00N 34°35' E 134°53'6 0.7
2017-Jun-21 03:11N 34°37' E 134°60'2 8.2
2017-Jun-21 02:58N 34°37' E 135°02'4 8.2
2017-Jun-21 02:30N 34°36' E 135°06'612.8
2017-Jun-21 02:00N 34°37' E 135°14'2 1.6
2017-Jun-21 00:32N 34°39' E 135°15'0 0.0
2017-Jun-21 00:20N 34°39' E 135°15'0 0.0
2017-Jun-20 23:44N 34°39' E 135°15'0 0.0
2017-Jun-20 23:16N 34°39' E 135°15'0 1.3
2017-Jun-20 23:00N 34°39' E 135°15'1 1.0
2017-Jun-20 22:27N 34°39' E 135°15'0 0.1
2017-Jun-20 21:58N 34°39' E 135°15'3 6.6
2017-Jun-20 21:30N 34°37' E 135°12'5 9.5
2017-Jun-20 21:00N 34°35' E 135°06'4 7.5
2017-Jun-20 20:30N 34°36' E 135°02'3 5.5
2017-Jun-20 19:58N 34°37' E 134°59'4 7.8
2017-Jun-20 19:27N 34°35' E 134°54'4 8.4
2017-Jun-20 18:58N 34°33' E 134°50'4 0.1
2017-Jun-19 06:05N 34°36' E 134°54'113.9
2017-Jun-19 05:59N 34°36' E 134°56'612.7
2017-Jun-19 05:30N 34°36' E 135°03'511.1
2017-Jun-19 05:00N 34°36' E 135°10'612.1
2017-Jun-19 04:30N 34°38' E 135°17'511.1
2017-Jun-19 04:01N 34°38' E 135°24'1 2.3
2017-Jun-19 03:30N 34°38' E 135°25'0 0.0
2017-Jun-19 03:01N 34°38' E 135°25'0 0.0
2017-Jun-19 02:30N 34°38' E 135°25'1 1.4
2017-Jun-19 02:01N 34°37' E 135°24'510.0
2017-Jun-19 01:30N 34°38' E 135°18'3 6.9
2017-Jun-19 01:00N 34°40' E 135°14'0 0.0
2017-Jun-19 00:31N 34°40' E 135°14'0 0.0
2017-Jun-19 00:01N 34°40' E 135°14'0 0.0
2017-Jun-18 23:31N 34°40' E 135°14'0 0.0
2017-Jun-18 23:01N 34°40' E 135°14'1 2.2
2017-Jun-18 22:30N 34°39' E 135°15'0 0.1
2017-Jun-18 22:01N 34°39' E 135°15'0 0.0
2017-Jun-18 21:30N 34°39' E 135°15'0 0.1
2017-Jun-18 21:00N 34°39' E 135°15'0 0.0
2017-Jun-18 20:30N 34°39' E 135°15'1 2.8
2017-Jun-18 20:00N 34°38' E 135°17'611.4
2017-Jun-18 19:30N 34°34' E 135°12'611.8
2017-Jun-18 19:00N 34°30' E 135°07'612.5
2017-Jun-18 18:31N 34°24' E 135°03'713.4
2017-Jun-18 18:00N 34°18' E 134°60'612.9
2017-Jun-18 17:30N 34°12' E 134°59'  
2017-Jun-16 10:52N 34°08' E 134°56'513.7
2017-Jun-16 10:30N 34°13' E 134°57'814.2
2017-Jun-16 09:54N 34°21' E 135°00'513.0
2017-Jun-16 09:29N 34°25' E 135°05'713.9
2017-Jun-16 09:00N 34°29' E 135°11'613.0
2017-Jun-16 08:30N 34°33' E 135°17'612.4
2017-Jun-16 08:00N 34°37' E 135°23'2 4.2
2017-Jun-16 07:31N 34°38' E 135°25'4 8.7
2017-Jun-16 07:00N 34°36' E 135°20'510.9
2017-Jun-16 06:30N 34°40' E 135°14'0 0.1
2017-Jun-16 06:00N 34°40' E 135°14'0 0.0
2017-Jun-16 05:30N 34°40' E 135°14'0 0.0
2017-Jun-16 05:00N 34°40' E 135°14'0 0.0
2017-Jun-16 04:30N 34°40' E 135°14'0 0.0
2017-Jun-16 04:00N 34°40' E 135°14'0 0.0
2017-Jun-16 03:30N 34°40' E 135°14'0 0.1
2017-Jun-16 03:00N 34°40' E 135°14'0 0.0
2017-Jun-16 02:30N 34°40' E 135°14'1 2.1
2017-Jun-16 02:00N 34°39' E 135°15'3 6.7
2017-Jun-16 01:30N 34°37' E 135°12'612.2
2017-Jun-16 01:00N 34°35' E 135°05'612.0
2017-Jun-16 00:30N 34°37' E 134°58'3 0.1
2017-Jun-14 06:24N 34°36' E 134°54'410.5
2017-Jun-14 06:00N 34°38' E 134°59'5 9.8
2017-Jun-14 05:30N 34°36' E 135°05'611.6
2017-Jun-14 05:00N 34°37' E 135°12'3 6.9
2017-Jun-14 04:30N 34°39' E 135°15'0 0.0
2017-Jun-14 04:00N 34°39' E 135°15'0 0.0
2017-Jun-14 03:30N 34°39' E 135°15'0 0.0
2017-Jun-14 03:00N 34°39' E 135°15'0 0.0
2017-Jun-14 02:30N 34°39' E 135°15'0 0.0
2017-Jun-14 02:00N 34°39' E 135°15'1 1.1
2017-Jun-14 01:30N 34°39' E 135°15'0 0.2
2017-Jun-14 01:00N 34°39' E 135°15'0 0.0
2017-Jun-14 00:30N 34°39' E 135°15'0 0.0
2017-Jun-13 23:59N 34°39' E 135°15'0 0.0
2017-Jun-13 23:30N 34°39' E 135°15'0 0.1
2017-Jun-13 23:00N 34°39' E 135°15'0 0.0
2017-Jun-13 22:30N 34°39' E 135°15'0 0.1
2017-Jun-13 22:00N 34°39' E 135°15'0 0.0
2017-Jun-13 21:30N 34°39' E 135°15'0 0.1
2017-Jun-13 21:00N 34°39' E 135°15'4 8.6
2017-Jun-13 20:30N 34°36' E 135°11'611.8
2017-Jun-13 20:00N 34°35' E 135°04'612.6
2017-Jun-13 19:30N 34°36' E 134°56'  

Dump ship's entire track history